createdAt,value
2018-07-16T00:00:25.726Z,19.10
2018-07-16T00:02:54.006Z,19.10
2018-07-16T00:05:22.296Z,19.10
2018-07-16T00:07:50.587Z,19.10
2018-07-16T00:10:18.875Z,19.20
2018-07-16T00:12:47.510Z,19.20
2018-07-16T00:15:15.794Z,19.30
2018-07-16T00:17:45.236Z,19.40
2018-07-16T00:20:14.462Z,19.50
2018-07-16T00:22:43.341Z,19.50
2018-07-16T00:25:12.212Z,19.60
2018-07-16T00:27:41.082Z,19.70
2018-07-16T00:30:09.927Z,19.70
2018-07-16T00:32:38.775Z,19.80
2018-07-16T00:35:07.940Z,19.80
2018-07-16T00:37:36.833Z,19.80
2018-07-16T00:40:06.040Z,19.80
2018-07-16T00:42:34.992Z,19.80
2018-07-16T00:45:03.869Z,19.80
2018-07-16T00:47:32.742Z,19.80
2018-07-16T00:50:01.589Z,19.80
2018-07-16T00:52:30.490Z,19.70
2018-07-16T00:54:59.317Z,19.70
2018-07-16T00:59:56.979Z,19.70
2018-07-16T01:02:25.221Z,19.70
2018-07-16T01:04:53.674Z,19.60
2018-07-16T01:07:21.962Z,19.60
2018-07-16T01:09:51.170Z,19.60
2018-07-16T01:12:20.012Z,19.50
2018-07-16T01:14:48.867Z,19.50
2018-07-16T01:17:17.135Z,19.50
2018-07-16T01:19:45.469Z,19.40
2018-07-16T01:22:13.741Z,19.40
2018-07-16T01:24:42.120Z,19.40
2018-07-16T01:27:10.964Z,19.30
2018-07-16T01:29:39.293Z,19.30
2018-07-16T01:32:07.951Z,19.20
2018-07-16T01:34:36.284Z,19.20
2018-07-16T01:37:04.566Z,19.20
2018-07-16T01:39:33.115Z,19.20
2018-07-16T01:42:01.490Z,19.10
2018-07-16T01:44:29.791Z,19.10
2018-07-16T01:49:26.139Z,19.00
2018-07-16T01:51:54.410Z,18.90
2018-07-16T01:54:22.698Z,18.90
2018-07-16T01:56:51.104Z,18.90
2018-07-16T01:59:19.372Z,18.90
2018-07-16T02:01:47.680Z,18.90
2018-07-16T02:04:15.981Z,18.90
2018-07-16T02:06:44.281Z,18.80
2018-07-16T02:09:12.632Z,18.80
2018-07-16T02:11:40.927Z,18.80
2018-07-16T02:14:09.494Z,18.80
2018-07-16T02:16:37.754Z,18.80
2018-07-16T02:21:34.562Z,18.70
2018-07-16T02:24:02.848Z,18.80
2018-07-16T02:26:31.152Z,18.80
2018-07-16T02:28:59.401Z,18.70
2018-07-16T02:31:27.713Z,18.70
2018-07-16T02:33:56.005Z,18.70
2018-07-16T02:36:24.308Z,18.70
2018-07-16T02:41:20.851Z,18.70
2018-07-16T02:43:49.140Z,18.70
2018-07-16T02:46:17.488Z,18.70
2018-07-16T02:48:45.780Z,18.70
2018-07-16T02:51:14.079Z,18.70
2018-07-16T02:53:42.354Z,18.70
2018-07-16T02:56:11.091Z,18.60
2018-07-16T02:58:39.400Z,18.60
2018-07-16T03:01:08.041Z,18.60
2018-07-16T03:06:04.736Z,18.50
2018-07-16T03:08:33.025Z,18.50
2018-07-16T03:11:01.340Z,18.50
2018-07-16T03:13:29.659Z,18.50
2018-07-16T03:15:57.950Z,18.50
2018-07-16T03:18:26.250Z,18.40
2018-07-16T03:20:54.809Z,18.40
2018-07-16T03:23:23.128Z,18.40
2018-07-16T03:25:51.431Z,18.30
2018-07-16T03:28:19.775Z,18.30
2018-07-16T03:30:48.097Z,18.30
2018-07-16T03:33:16.833Z,18.30
2018-07-16T03:35:45.096Z,18.20
2018-07-16T03:38:13.394Z,18.20
2018-07-16T03:40:42.068Z,18.30
2018-07-16T03:45:38.365Z,18.20
2018-07-16T03:48:06.721Z,18.20
2018-07-16T03:50:35.196Z,18.20
2018-07-16T03:53:03.484Z,18.20
2018-07-16T03:55:31.840Z,18.10
2018-07-16T03:58:00.140Z,18.10
2018-07-16T04:00:28.414Z,18.10
2018-07-16T04:02:57.052Z,18.10
2018-07-16T04:05:25.335Z,18.10
2018-07-16T04:07:53.684Z,18.10
2018-07-16T04:10:21.995Z,18.00
2018-07-16T04:12:50.639Z,18.10
2018-07-16T04:15:18.920Z,18.10
2018-07-16T04:17:47.224Z,18.10
2018-07-16T04:20:15.542Z,18.10
2018-07-16T04:22:43.876Z,18.10
2018-07-16T04:25:12.221Z,18.10
2018-07-16T04:27:40.521Z,18.10
2018-07-16T04:30:08.850Z,18.10
2018-07-16T04:32:37.140Z,18.10
2018-07-16T04:35:12.487Z,18.10
2018-07-16T04:37:40.747Z,18.10
2018-07-16T04:40:09.064Z,18.20
2018-07-16T04:42:37.338Z,18.20
2018-07-16T04:45:05.683Z,18.20
2018-07-16T04:47:34.519Z,18.20
2018-07-16T04:50:03.137Z,18.20
2018-07-16T04:52:31.420Z,18.30
2018-07-16T04:54:59.742Z,18.30
2018-07-16T04:57:29.566Z,18.30
2018-07-16T04:59:57.892Z,18.30
2018-07-16T05:02:26.536Z,18.40
2018-07-16T05:04:54.888Z,18.40
2018-07-16T05:07:23.179Z,18.50
2018-07-16T05:09:52.065Z,18.50
2018-07-16T05:12:20.970Z,18.50
2018-07-16T05:14:49.857Z,18.60
2018-07-16T05:17:18.746Z,18.60
2018-07-16T05:19:47.719Z,18.60
2018-07-16T05:22:16.100Z,18.70
2018-07-16T05:24:45.181Z,18.80
2018-07-16T05:27:14.205Z,18.80
2018-07-16T05:29:43.228Z,18.90
2018-07-16T05:32:12.800Z,19.00
2018-07-16T05:34:41.814Z,19.10
2018-07-16T05:37:10.832Z,19.20
2018-07-16T05:39:39.849Z,19.30
2018-07-16T05:42:08.779Z,19.50
2018-07-16T05:47:06.497Z,19.70
2018-07-16T05:49:36.518Z,19.90
2018-07-16T05:52:05.516Z,20.10
2018-07-16T05:54:34.483Z,20.20
2018-07-16T05:57:03.362Z,20.40
2018-07-16T05:59:32.779Z,20.50
2018-07-16T06:02:01.806Z,20.70
2018-07-16T06:04:30.998Z,20.90
2018-07-16T06:06:59.989Z,21.00
2018-07-16T06:09:28.998Z,21.20
2018-07-16T06:11:58.911Z,21.40
2018-07-16T06:14:28.065Z,21.60
2018-07-16T06:16:57.083Z,21.70
2018-07-16T06:19:28.441Z,21.90
2018-07-16T06:21:57.450Z,22.10
2018-07-16T06:24:27.371Z,22.20
2018-07-16T06:26:56.357Z,22.40
2018-07-16T06:29:25.364Z,22.60
2018-07-16T06:31:54.463Z,22.80
2018-07-16T06:34:24.414Z,22.90
2018-07-16T06:36:53.648Z,23.00
2018-07-16T06:39:22.946Z,23.20
2018-07-16T06:41:52.622Z,23.40
2018-07-16T06:44:21.508Z,23.50
2018-07-16T06:46:50.384Z,23.70
2018-07-16T06:49:19.207Z,23.80
2018-07-16T06:51:48.109Z,23.90
2018-07-16T06:54:16.976Z,24.00
2018-07-16T06:56:45.849Z,24.10
2018-07-16T06:59:14.691Z,24.20
2018-07-16T07:01:43.315Z,24.30
2018-07-16T07:04:12.164Z,24.40
2018-07-16T07:06:41.024Z,24.50
2018-07-16T07:09:09.856Z,24.50
2018-07-16T07:11:38.708Z,24.60
2018-07-16T07:14:07.654Z,24.70
2018-07-16T07:16:36.602Z,24.70
2018-07-16T07:19:05.652Z,24.70
2018-07-16T07:24:08.875Z,24.90
2018-07-16T07:26:41.046Z,24.90
2018-07-16T07:29:09.918Z,25.10
2018-07-16T07:31:41.924Z,25.20
2018-07-16T07:34:11.018Z,25.30
2018-07-16T07:36:43.059Z,25.40
2018-07-16T07:39:11.892Z,25.40
2018-07-16T07:41:40.758Z,25.50
2018-07-16T07:44:09.840Z,25.60
2018-07-16T07:46:38.672Z,25.60
2018-07-16T07:49:07.820Z,25.60
2018-07-16T07:51:36.663Z,25.60
2018-07-16T07:54:15.856Z,25.70
2018-07-16T07:59:19.907Z,25.90
2018-07-16T08:01:48.816Z,25.90
2018-07-16T08:04:17.659Z,26.00
2018-07-16T08:06:51.812Z,26.10
2018-07-16T08:09:20.835Z,26.20
2018-07-16T08:11:49.867Z,26.20
2018-07-16T08:14:19.009Z,26.30
2018-07-16T08:16:48.045Z,26.30
2018-07-16T08:19:17.196Z,26.30
2018-07-16T08:21:46.086Z,26.40
2018-07-16T08:26:44.146Z,26.50
2018-07-16T08:29:13.001Z,26.50
2018-07-16T08:31:42.296Z,26.60
2018-07-16T08:34:11.156Z,26.60
2018-07-16T08:36:49.723Z,26.60
2018-07-16T08:39:19.150Z,26.70
2018-07-16T08:41:48.062Z,26.70
2018-07-16T08:44:20.383Z,26.70
2018-07-16T08:46:57.430Z,26.80
2018-07-16T08:49:26.727Z,26.80
2018-07-16T08:51:55.555Z,26.90
2018-07-16T08:54:24.797Z,26.90
2018-07-16T08:56:53.889Z,27.00
2018-07-16T08:59:22.762Z,27.10
2018-07-16T09:01:51.491Z,27.20
2018-07-16T09:04:20.367Z,27.30
2018-07-16T09:06:49.278Z,27.30
2018-07-16T09:09:18.131Z,27.30
2018-07-16T09:11:46.934Z,27.30
2018-07-16T09:14:15.576Z,27.40
2018-07-16T09:16:44.591Z,27.40
2018-07-16T09:19:13.646Z,27.40
2018-07-16T09:21:42.673Z,27.40
2018-07-16T09:24:13.071Z,27.40
2018-07-16T09:26:49.874Z,27.60
2018-07-16T09:29:18.731Z,27.70
2018-07-16T09:31:47.602Z,27.70
2018-07-16T09:34:19.192Z,27.80
2018-07-16T09:36:47.780Z,27.80
2018-07-16T09:39:16.632Z,27.90
2018-07-16T09:41:45.247Z,28.00
2018-07-16T09:44:17.248Z,28.10
2018-07-16T09:46:46.269Z,28.10
2018-07-16T09:49:17.893Z,28.20
2018-07-16T09:51:47.126Z,28.10
2018-07-16T09:54:15.686Z,28.10
2018-07-16T09:56:44.542Z,28.20
2018-07-16T09:59:13.122Z,28.20
2018-07-16T10:01:44.840Z,28.30
2018-07-16T10:04:14.980Z,28.40
2018-07-16T10:06:43.819Z,28.40
2018-07-16T10:09:12.412Z,28.40
2018-07-16T10:11:40.999Z,28.40
2018-07-16T10:14:09.594Z,28.40
2018-07-16T10:16:38.474Z,28.50
2018-07-16T10:19:07.048Z,28.50
2018-07-16T10:21:35.695Z,28.60
2018-07-16T10:24:04.593Z,28.60
2018-07-16T10:26:33.462Z,28.60
2018-07-16T10:29:02.313Z,28.60
2018-07-16T10:31:30.913Z,28.60
2018-07-16T10:33:59.593Z,28.70
2018-07-16T10:36:28.387Z,28.60
2018-07-16T10:38:57.146Z,28.70
2018-07-16T10:41:26.309Z,28.60
2018-07-16T10:43:55.354Z,28.70
2018-07-16T10:46:24.486Z,28.80
2018-07-16T10:48:53.449Z,28.90
2018-07-16T10:51:22.152Z,28.90
2018-07-16T10:53:50.831Z,29.00
2018-07-16T10:56:19.879Z,29.10
2018-07-16T10:58:48.626Z,29.10
2018-07-16T11:01:20.753Z,29.20
2018-07-16T11:03:49.498Z,29.30
2018-07-16T11:06:23.968Z,29.40
2018-07-16T11:08:54.333Z,29.30
2018-07-16T11:11:23.134Z,29.40
2018-07-16T11:13:54.990Z,29.40
2018-07-16T11:16:26.958Z,29.50
2018-07-16T11:19:04.913Z,29.60
2018-07-16T11:21:33.502Z,29.50
2018-07-16T11:24:02.538Z,29.40
2018-07-16T11:26:31.138Z,29.50
2018-07-16T11:31:37.479Z,29.60
2018-07-16T11:34:06.251Z,29.80
2018-07-16T11:36:34.839Z,29.60
2018-07-16T11:39:04.203Z,29.80
2018-07-16T11:44:01.482Z,29.80
2018-07-16T11:46:33.078Z,29.90
2018-07-16T11:49:04.948Z,29.90
2018-07-16T11:51:33.496Z,30.00
2018-07-16T11:54:02.076Z,30.00
2018-07-16T11:56:31.194Z,30.10
2018-07-16T11:58:59.852Z,30.20
2018-07-16T12:01:28.664Z,30.20
2018-07-16T12:03:57.187Z,30.20
2018-07-16T12:06:25.805Z,30.40
2018-07-16T12:08:55.897Z,30.40
2018-07-16T12:11:24.501Z,30.40
2018-07-16T12:13:53.317Z,30.60
2018-07-16T12:16:21.888Z,30.60
2018-07-16T12:18:50.447Z,30.70
2018-07-16T12:21:19.365Z,30.60
2018-07-16T12:23:47.954Z,30.70
2018-07-16T12:26:16.547Z,30.80
2018-07-16T12:28:45.368Z,30.50
2018-07-16T12:31:14.115Z,30.50
2018-07-16T12:33:42.776Z,30.60
2018-07-16T12:36:11.463Z,30.70
2018-07-16T12:38:40.145Z,30.80
2018-07-16T12:41:08.797Z,30.70
2018-07-16T12:43:37.412Z,30.90
2018-07-16T12:46:06.034Z,31.00
2018-07-16T12:48:34.651Z,31.20
2018-07-16T12:51:03.372Z,31.30
2018-07-16T12:53:31.927Z,31.40
2018-07-16T12:56:00.537Z,31.40
2018-07-16T12:58:32.275Z,31.50
2018-07-16T13:01:00.815Z,31.70
2018-07-16T13:03:29.405Z,31.80
2018-07-16T13:08:26.735Z,32.00
2018-07-16T13:10:55.565Z,32.20
2018-07-16T13:13:24.219Z,32.40
2018-07-16T13:15:52.802Z,32.40
2018-07-16T13:18:21.517Z,32.40
2018-07-16T13:20:50.120Z,32.30
2018-07-16T13:23:18.667Z,32.30
2018-07-16T13:25:47.236Z,32.30
2018-07-16T13:28:16.710Z,32.30
2018-07-16T13:33:13.685Z,32.10
2018-07-16T13:38:10.649Z,32.20
2018-07-16T13:40:39.218Z,32.20
2018-07-16T13:43:07.749Z,32.30
2018-07-16T13:45:36.360Z,32.50
2018-07-16T13:48:04.962Z,32.50
2018-07-16T13:50:33.814Z,32.70
2018-07-16T13:53:02.356Z,32.80
2018-07-16T13:55:30.899Z,32.90
2018-07-16T13:57:59.503Z,33.10
2018-07-16T14:00:28.419Z,33.10
2018-07-16T14:02:56.986Z,33.00
2018-07-16T14:05:25.541Z,33.00
2018-07-16T14:10:22.466Z,32.90
2018-07-16T14:12:51.060Z,33.00
2018-07-16T14:15:19.684Z,33.30
2018-07-16T14:17:48.491Z,33.30
2018-07-16T14:20:17.848Z,33.30
2018-07-16T14:22:46.469Z,33.40
2018-07-16T14:27:43.543Z,33.40
2018-07-16T14:30:13.073Z,33.10
2018-07-16T14:32:41.731Z,33.10
2018-07-16T14:35:10.319Z,32.80
2018-07-16T14:37:38.940Z,32.60
2018-07-16T14:40:07.706Z,32.50
2018-07-16T14:42:37.113Z,32.30
2018-07-16T14:45:06.077Z,32.20
2018-07-16T14:47:34.680Z,32.20
2018-07-16T14:50:03.288Z,32.00
2018-07-16T14:52:31.947Z,31.90
2018-07-16T14:55:00.542Z,31.90
2018-07-16T14:57:29.202Z,31.80
2018-07-16T14:59:57.798Z,31.80
2018-07-16T15:02:26.400Z,31.70
2018-07-16T15:04:55.032Z,31.60
2018-07-16T15:07:23.813Z,31.60
2018-07-16T15:12:21.303Z,31.60
2018-07-16T15:14:49.875Z,32.00
2018-07-16T15:17:18.975Z,32.40
2018-07-16T15:19:47.638Z,32.70
2018-07-16T15:22:16.396Z,32.90
2018-07-16T15:24:45.159Z,33.00
2018-07-16T15:29:43.480Z,33.60
2018-07-16T15:32:12.519Z,34.00
2018-07-16T15:34:41.212Z,34.10
2018-07-16T15:37:10.919Z,34.10
2018-07-16T15:39:39.605Z,33.90
2018-07-16T15:42:08.449Z,33.70
2018-07-16T15:44:37.779Z,33.70
2018-07-16T15:47:06.994Z,34.00
2018-07-16T15:49:35.677Z,34.10
2018-07-16T15:52:07.335Z,33.80
2018-07-16T15:54:36.009Z,33.50
2018-07-16T15:57:04.627Z,33.30
2018-07-16T15:59:33.552Z,33.40
2018-07-16T16:02:02.221Z,33.50
2018-07-16T16:04:31.728Z,33.70
2018-07-16T16:07:00.362Z,33.70
2018-07-16T16:09:32.024Z,33.40
2018-07-16T16:14:31.696Z,33.70
2018-07-16T16:17:00.342Z,34.40
2018-07-16T16:19:29.485Z,34.40
2018-07-16T16:21:58.075Z,34.60
2018-07-16T16:24:26.943Z,34.40
2018-07-16T16:26:55.865Z,34.10
2018-07-16T16:29:24.457Z,34.00
2018-07-16T16:31:53.530Z,33.80
2018-07-16T16:34:22.734Z,33.60
2018-07-16T16:36:51.312Z,33.60
2018-07-16T16:39:19.927Z,33.70
2018-07-16T16:41:48.576Z,34.20
2018-07-16T16:44:17.181Z,34.90
2018-07-16T16:46:45.892Z,35.80
2018-07-16T16:49:14.758Z,36.30
2018-07-16T16:51:43.508Z,36.70
2018-07-16T16:54:12.153Z,37.10
2018-07-16T16:56:40.697Z,37.90
2018-07-16T16:59:09.288Z,38.20
2018-07-16T17:01:37.701Z,38.50
2018-07-16T17:04:06.541Z,38.70
2018-07-16T17:06:35.509Z,38.70
2018-07-16T17:09:05.298Z,38.50
2018-07-16T17:11:33.916Z,38.00
2018-07-16T17:14:02.554Z,37.50
2018-07-16T17:16:31.512Z,36.70
2018-07-16T17:19:00.421Z,36.00
2018-07-16T17:21:29.360Z,35.30
2018-07-16T17:23:57.988Z,34.90
2018-07-16T17:26:26.592Z,34.40
2018-07-16T17:28:55.238Z,34.00
2018-07-16T17:31:23.797Z,33.60
2018-07-16T17:33:52.364Z,33.20
2018-07-16T17:36:20.954Z,32.70
2018-07-16T17:38:49.557Z,32.30
2018-07-16T17:41:18.156Z,32.10
2018-07-16T17:43:46.830Z,31.80
2018-07-16T17:46:15.457Z,31.50
2018-07-16T17:51:12.607Z,31.10
2018-07-16T17:53:41.251Z,30.90
2018-07-16T17:56:10.352Z,30.70
2018-07-16T17:58:38.992Z,30.50
2018-07-16T18:01:08.168Z,30.30
2018-07-16T18:03:36.879Z,30.10
2018-07-16T18:06:05.832Z,30.00
2018-07-16T18:08:34.694Z,29.80
2018-07-16T18:11:03.640Z,29.70
2018-07-16T18:13:32.946Z,29.60
2018-07-16T18:16:02.544Z,29.40
2018-07-16T18:18:31.665Z,29.30
2018-07-16T18:21:00.830Z,29.20
2018-07-16T18:23:29.902Z,29.10
2018-07-16T18:26:01.472Z,28.90
2018-07-16T18:28:31.897Z,28.90
2018-07-16T18:31:02.286Z,28.70
2018-07-16T18:33:32.957Z,28.60
2018-07-16T18:36:07.044Z,28.50
2018-07-16T18:38:36.378Z,28.40
2018-07-16T18:41:05.281Z,28.20
2018-07-16T18:43:34.484Z,28.20
2018-07-16T18:46:03.695Z,28.00
2018-07-16T18:48:32.601Z,27.90
2018-07-16T18:51:01.509Z,27.80
2018-07-16T18:53:30.414Z,27.80
2018-07-16T18:55:59.352Z,27.60
2018-07-16T18:58:28.277Z,27.50
2018-07-16T19:00:56.889Z,27.40
2018-07-16T19:03:26.215Z,27.20
2018-07-16T19:05:55.363Z,27.10
2018-07-16T19:08:24.453Z,27.00
2018-07-16T19:10:53.391Z,26.80
2018-07-16T19:13:22.283Z,26.70
2018-07-16T19:15:51.217Z,26.50
2018-07-16T19:18:20.366Z,26.40
2018-07-16T19:20:49.343Z,26.30
2018-07-16T19:23:18.274Z,26.10
2018-07-16T19:25:47.228Z,26.00
2018-07-16T19:28:16.143Z,25.80
2018-07-16T19:30:45.332Z,25.70
2018-07-16T19:33:14.197Z,25.50
2018-07-16T19:35:43.184Z,25.40
2018-07-16T19:38:12.191Z,25.30
2018-07-16T19:40:41.144Z,25.10
2018-07-16T19:43:10.099Z,25.00
2018-07-16T19:45:39.023Z,24.90
2018-07-16T19:50:36.645Z,24.70
2018-07-16T19:53:05.541Z,24.60
2018-07-16T19:55:34.737Z,24.50
2018-07-16T19:58:04.102Z,24.40
2018-07-16T20:00:33.434Z,24.30
2018-07-16T20:03:02.268Z,24.20
2018-07-16T20:05:31.307Z,24.10
2018-07-16T20:08:03.753Z,24.00
2018-07-16T20:10:33.204Z,23.90
2018-07-16T20:13:02.296Z,23.80
2018-07-16T20:15:31.626Z,23.70
2018-07-16T20:18:00.815Z,23.50
2018-07-16T20:20:30.380Z,23.50
2018-07-16T20:22:59.648Z,23.40
2018-07-16T20:25:29.183Z,23.30
2018-07-16T20:27:58.195Z,23.20
2018-07-16T20:30:27.590Z,23.10
2018-07-16T20:32:57.331Z,23.00
2018-07-16T20:35:27.157Z,22.90
2018-07-16T20:37:57.248Z,22.90
2018-07-16T20:40:26.190Z,22.80
2018-07-16T20:42:55.129Z,22.70
2018-07-16T20:45:24.016Z,22.70
2018-07-16T20:47:52.897Z,22.60
2018-07-16T20:50:21.866Z,22.50
2018-07-16T20:55:19.513Z,22.40
2018-07-16T20:57:49.074Z,22.40
2018-07-16T21:00:18.297Z,22.30
2018-07-16T21:02:47.329Z,22.30
2018-07-16T21:05:16.434Z,22.30
2018-07-16T21:07:45.433Z,22.20
2018-07-16T21:10:14.861Z,22.20
2018-07-16T21:12:44.174Z,22.20
2018-07-16T21:15:13.394Z,22.20
2018-07-16T21:17:42.612Z,22.30
2018-07-16T21:20:13.036Z,22.40
2018-07-16T21:22:42.118Z,22.60
2018-07-16T21:27:40.903Z,22.70
2018-07-16T21:30:11.603Z,22.80
2018-07-16T21:32:40.789Z,22.90
2018-07-16T21:35:09.664Z,22.90
2018-07-16T21:37:38.913Z,22.90
2018-07-16T21:40:07.852Z,22.90
2018-07-16T21:42:36.863Z,22.90
2018-07-16T21:45:05.893Z,22.80
2018-07-16T21:47:34.980Z,22.70
2018-07-16T21:50:03.891Z,22.70
2018-07-16T21:52:33.157Z,22.60
2018-07-16T21:55:02.247Z,22.60
2018-07-16T22:00:31.464Z,22.40
2018-07-16T22:05:30.371Z,22.30
2018-07-16T22:08:00.089Z,22.30
2018-07-16T22:10:29.065Z,22.20
2018-07-16T22:12:58.487Z,22.20
2018-07-16T22:15:28.362Z,22.10
2018-07-16T22:17:58.135Z,22.00
2018-07-16T22:20:27.629Z,22.00
2018-07-16T22:22:56.830Z,21.90
2018-07-16T22:25:26.252Z,21.90
2018-07-16T22:27:55.160Z,21.90
2018-07-16T22:30:24.019Z,21.80
2018-07-16T22:32:53.056Z,21.80
2018-07-16T22:35:21.961Z,21.80
2018-07-16T22:37:50.886Z,21.70
2018-07-16T22:40:19.825Z,21.70
2018-07-16T22:42:48.707Z,21.70
2018-07-16T22:45:17.578Z,21.60
2018-07-16T22:47:46.501Z,21.60
2018-07-16T22:50:15.479Z,21.60
2018-07-16T22:52:44.311Z,21.60
2018-07-16T22:55:13.147Z,21.60
2018-07-16T22:57:42.328Z,21.50
2018-07-16T23:00:11.229Z,21.60
2018-07-16T23:02:40.268Z,21.60
2018-07-16T23:05:09.197Z,21.50
2018-07-16T23:07:38.033Z,21.60
2018-07-16T23:10:06.873Z,21.60
2018-07-16T23:12:35.726Z,21.70
2018-07-16T23:15:05.137Z,21.70
2018-07-16T23:17:34.155Z,21.80
2018-07-16T23:20:07.051Z,21.80
2018-07-16T23:22:50.035Z,21.80
2018-07-16T23:25:19.155Z,21.90
2018-07-16T23:27:48.337Z,22.00
2018-07-16T23:30:17.406Z,22.00
2018-07-16T23:32:46.656Z,22.10
2018-07-16T23:35:16.991Z,22.10
2018-07-16T23:37:46.082Z,22.10
2018-07-16T23:43:08.828Z,22.10
2018-07-16T23:45:37.662Z,22.10
2018-07-16T23:48:06.475Z,22.00
2018-07-16T23:50:35.765Z,22.00
2018-07-16T23:53:04.602Z,21.90
2018-07-16T23:55:33.465Z,21.90
2018-07-16T23:58:02.297Z,21.80
